sensor_id;sensor_type;location;lat;lon;timestamp;temperature;humidity
64549;DHT22;49838;51.798;10.954;2022-07-23T00:00:20;25.10;33.10
64549;DHT22;49838;51.798;10.954;2022-07-23T00:02:47;25.10;33.10
64549;DHT22;49838;51.798;10.954;2022-07-23T00:05:15;25.00;33.10
64549;DHT22;49838;51.798;10.954;2022-07-23T00:07:42;25.00;33.10
64549;DHT22;49838;51.798;10.954;2022-07-23T00:10:11;25.00;33.20
64549;DHT22;49838;51.798;10.954;2022-07-23T00:12:38;25.00;33.20
64549;DHT22;49838;51.798;10.954;2022-07-23T00:15:06;25.00;33.20
64549;DHT22;49838;51.798;10.954;2022-07-23T00:17:34;25.00;33.30
64549;DHT22;49838;51.798;10.954;2022-07-23T00:20:02;25.00;33.40
64549;DHT22;49838;51.798;10.954;2022-07-23T00:22:30;25.00;34.00
64549;DHT22;49838;51.798;10.954;2022-07-23T00:24:57;25.00;33.30
64549;DHT22;49838;51.798;10.954;2022-07-23T00:27:26;25.00;33.20
64549;DHT22;49838;51.798;10.954;2022-07-23T00:29:53;25.10;33.30
64549;DHT22;49838;51.798;10.954;2022-07-23T00:32:20;25.10;33.20
64549;DHT22;49838;51.798;10.954;2022-07-23T00:34:47;25.10;33.20
64549;DHT22;49838;51.798;10.954;2022-07-23T00:37:14;25.10;33.30
64549;DHT22;49838;51.798;10.954;2022-07-23T00:39:42;25.10;34.00
64549;DHT22;49838;51.798;10.954;2022-07-23T00:42:09;25.10;33.40
64549;DHT22;49838;51.798;10.954;2022-07-23T00:44:38;25.10;33.40
64549;DHT22;49838;51.798;10.954;2022-07-23T00:47:06;25.10;33.50
64549;DHT22;49838;51.798;10.954;2022-07-23T00:49:33;25.10;33.50
64549;DHT22;49838;51.798;10.954;2022-07-23T00:52:00;25.10;33.50
64549;DHT22;49838;51.798;10.954;2022-07-23T00:54:29;25.10;33.50
64549;DHT22;49838;51.798;10.954;2022-07-23T00:56:57;25.10;33.70
64549;DHT22;49838;51.798;10.954;2022-07-23T00:59:24;25.00;33.60
64549;DHT22;49838;51.798;10.954;2022-07-23T01:01:52;25.00;33.70
64549;DHT22;49838;51.798;10.954;2022-07-23T01:04:20;25.00;33.70
64549;DHT22;49838;51.798;10.954;2022-07-23T01:06:47;25.00;33.80
64549;DHT22;49838;51.798;10.954;2022-07-23T01:09:14;25.00;33.80
64549;DHT22;49838;51.798;10.954;2022-07-23T01:11:42;25.00;33.80
64549;DHT22;49838;51.798;10.954;2022-07-23T01:14:10;25.00;33.90
64549;DHT22;49838;51.798;10.954;2022-07-23T01:16:38;24.90;33.80
64549;DHT22;49838;51.798;10.954;2022-07-23T01:19:07;24.90;34.00
64549;DHT22;49838;51.798;10.954;2022-07-23T01:21:35;24.80;34.10
64549;DHT22;49838;51.798;10.954;2022-07-23T01:24:06;24.60;34.00
64549;DHT22;49838;51.798;10.954;2022-07-23T01:26:34;24.60;33.90
64549;DHT22;49838;51.798;10.954;2022-07-23T01:29:02;24.60;34.00
64549;DHT22;49838;51.798;10.954;2022-07-23T01:31:29;24.60;34.00
64549;DHT22;49838;51.798;10.954;2022-07-23T01:33:56;24.60;34.00
64549;DHT22;49838;51.798;10.954;2022-07-23T01:36:24;24.50;34.20
64549;DHT22;49838;51.798;10.954;2022-07-23T01:38:51;24.40;34.20
64549;DHT22;49838;51.798;10.954;2022-07-23T01:41:20;24.40;34.30
64549;DHT22;49838;51.798;10.954;2022-07-23T01:43:47;24.40;34.30
64549;DHT22;49838;51.798;10.954;2022-07-23T01:46:15;24.30;34.30
64549;DHT22;49838;51.798;10.954;2022-07-23T01:48:42;24.30;34.30
64549;DHT22;49838;51.798;10.954;2022-07-23T01:51:09;24.30;34.30
64549;DHT22;49838;51.798;10.954;2022-07-23T01:53:37;24.30;34.40
64549;DHT22;49838;51.798;10.954;2022-07-23T01:56:04;24.30;34.40
64549;DHT22;49838;51.798;10.954;2022-07-23T01:58:33;24.30;34.40
64549;DHT22;49838;51.798;10.954;2022-07-23T02:01:00;24.30;34.50
64549;DHT22;49838;51.798;10.954;2022-07-23T02:03:27;24.20;34.40
64549;DHT22;49838;51.798;10.954;2022-07-23T02:05:55;24.20;34.50
64549;DHT22;49838;51.798;10.954;2022-07-23T02:08:22;24.20;34.50
64549;DHT22;49838;51.798;10.954;2022-07-23T02:10:49;24.20;34.60
64549;DHT22;49838;51.798;10.954;2022-07-23T02:13:17;24.20;34.70
64549;DHT22;49838;51.798;10.954;2022-07-23T02:15:46;24.20;34.70
64549;DHT22;49838;51.798;10.954;2022-07-23T02:18:14;24.20;34.70
64549;DHT22;49838;51.798;10.954;2022-07-23T02:20:41;24.20;34.80
64549;DHT22;49838;51.798;10.954;2022-07-23T02:23:10;24.10;34.80
64549;DHT22;49838;51.798;10.954;2022-07-23T02:25:37;24.10;34.90
64549;DHT22;49838;51.798;10.954;2022-07-23T02:28:05;24.10;34.90
64549;DHT22;49838;51.798;10.954;2022-07-23T02:30:32;24.10;35.00
64549;DHT22;49838;51.798;10.954;2022-07-23T02:33:01;24.00;35.10
64549;DHT22;49838;51.798;10.954;2022-07-23T02:35:28;24.00;35.10
64549;DHT22;49838;51.798;10.954;2022-07-23T02:37:55;24.00;35.10
64549;DHT22;49838;51.798;10.954;2022-07-23T02:40:22;24.00;36.20
64549;DHT22;49838;51.798;10.954;2022-07-23T02:42:49;23.90;35.80
64549;DHT22;49838;51.798;10.954;2022-07-23T02:45:17;23.90;35.70
64549;DHT22;49838;51.798;10.954;2022-07-23T02:47:44;23.90;35.70
64549;DHT22;49838;51.798;10.954;2022-07-23T02:50:12;23.90;35.80
64549;DHT22;49838;51.798;10.954;2022-07-23T02:52:40;23.90;35.70
64549;DHT22;49838;51.798;10.954;2022-07-23T02:55:07;23.80;35.60
64549;DHT22;49838;51.798;10.954;2022-07-23T02:57:34;23.80;35.80
64549;DHT22;49838;51.798;10.954;2022-07-23T03:00:02;23.80;35.90
64549;DHT22;49838;51.798;10.954;2022-07-23T03:02:31;23.70;35.90
64549;DHT22;49838;51.798;10.954;2022-07-23T03:04:58;23.70;35.90
64549;DHT22;49838;51.798;10.954;2022-07-23T03:07:27;23.70;35.90
64549;DHT22;49838;51.798;10.954;2022-07-23T03:09:54;23.70;35.80
64549;DHT22;49838;51.798;10.954;2022-07-23T03:12:21;23.80;35.90
64549;DHT22;49838;51.798;10.954;2022-07-23T03:14:48;23.70;35.80
64549;DHT22;49838;51.798;10.954;2022-07-23T03:17:16;23.80;35.90
64549;DHT22;49838;51.798;10.954;2022-07-23T03:19:43;23.80;35.90
64549;DHT22;49838;51.798;10.954;2022-07-23T03:22:10;23.80;35.80
64549;DHT22;49838;51.798;10.954;2022-07-23T03:24:39;23.80;35.90
64549;DHT22;49838;51.798;10.954;2022-07-23T03:27:21;23.80;35.90
64549;DHT22;49838;51.798;10.954;2022-07-23T03:29:50;23.80;36.00
64549;DHT22;49838;51.798;10.954;2022-07-23T03:32:17;23.80;36.00
64549;DHT22;49838;51.798;10.954;2022-07-23T03:34:44;23.80;36.00
64549;DHT22;49838;51.798;10.954;2022-07-23T03:37:11;23.80;36.10
64549;DHT22;49838;51.798;10.954;2022-07-23T03:39:40;23.70;36.10
64549;DHT22;49838;51.798;10.954;2022-07-23T03:42:07;23.80;36.20
64549;DHT22;49838;51.798;10.954;2022-07-23T03:44:35;23.80;36.20
64549;DHT22;49838;51.798;10.954;2022-07-23T03:47:04;23.80;36.10
64549;DHT22;49838;51.798;10.954;2022-07-23T03:49:32;23.80;36.20
64549;DHT22;49838;51.798;10.954;2022-07-23T03:51:59;23.80;36.10
64549;DHT22;49838;51.798;10.954;2022-07-23T03:54:27;23.80;36.20
64549;DHT22;49838;51.798;10.954;2022-07-23T03:56:55;23.70;36.40
64549;DHT22;49838;51.798;10.954;2022-07-23T03:59:23;23.70;36.40
64549;DHT22;49838;51.798;10.954;2022-07-23T04:01:50;23.60;36.40
64549;DHT22;49838;51.798;10.954;2022-07-23T04:04:18;23.60;36.40
64549;DHT22;49838;51.798;10.954;2022-07-23T04:06:45;23.60;36.40
64549;DHT22;49838;51.798;10.954;2022-07-23T04:09:12;23.70;36.40
64549;DHT22;49838;51.798;10.954;2022-07-23T04:11:40;23.70;36.40
64549;DHT22;49838;51.798;10.954;2022-07-23T04:14:08;23.70;36.40
64549;DHT22;49838;51.798;10.954;2022-07-23T04:16:36;23.70;36.40
64549;DHT22;49838;51.798;10.954;2022-07-23T04:19:03;23.80;36.40
64549;DHT22;49838;51.798;10.954;2022-07-23T04:21:30;23.80;36.50
64549;DHT22;49838;51.798;10.954;2022-07-23T04:23:57;23.80;36.40
64549;DHT22;49838;51.798;10.954;2022-07-23T04:26:24;23.80;36.50
64549;DHT22;49838;51.798;10.954;2022-07-23T04:28:52;23.80;36.50
64549;DHT22;49838;51.798;10.954;2022-07-23T04:31:21;23.80;36.50
64549;DHT22;49838;51.798;10.954;2022-07-23T04:33:49;23.80;36.50
64549;DHT22;49838;51.798;10.954;2022-07-23T04:36:16;23.80;36.50
64549;DHT22;49838;51.798;10.954;2022-07-23T04:38:43;23.80;36.50
64549;DHT22;49838;51.798;10.954;2022-07-23T04:41:10;23.80;36.50
64549;DHT22;49838;51.798;10.954;2022-07-23T04:43:38;23.80;36.60
64549;DHT22;49838;51.798;10.954;2022-07-23T04:46:05;23.80;36.70
64549;DHT22;49838;51.798;10.954;2022-07-23T04:48:34;23.80;36.70
64549;DHT22;49838;51.798;10.954;2022-07-23T04:51:01;23.80;36.70
64549;DHT22;49838;51.798;10.954;2022-07-23T04:53:29;23.80;36.70
64549;DHT22;49838;51.798;10.954;2022-07-23T04:55:56;23.80;36.80
64549;DHT22;49838;51.798;10.954;2022-07-23T04:58:23;23.80;36.80
64549;DHT22;49838;51.798;10.954;2022-07-23T05:00:51;23.80;36.80
64549;DHT22;49838;51.798;10.954;2022-07-23T05:03:18;23.80;36.90
64549;DHT22;49838;51.798;10.954;2022-07-23T05:05:46;23.80;36.80
64549;DHT22;49838;51.798;10.954;2022-07-23T05:08:14;23.80;36.80
64549;DHT22;49838;51.798;10.954;2022-07-23T05:10:41;23.80;36.80
64549;DHT22;49838;51.798;10.954;2022-07-23T05:13:08;23.90;36.90
64549;DHT22;49838;51.798;10.954;2022-07-23T05:15:35;23.90;36.80
64549;DHT22;49838;51.798;10.954;2022-07-23T05:18:03;24.00;37.00
64549;DHT22;49838;51.798;10.954;2022-07-23T05:20:30;24.00;37.00
64549;DHT22;49838;51.798;10.954;2022-07-23T05:22:59;24.00;37.00
64549;DHT22;49838;51.798;10.954;2022-07-23T05:25:26;24.00;36.90
64549;DHT22;49838;51.798;10.954;2022-07-23T05:27:53;24.00;36.90
64549;DHT22;49838;51.798;10.954;2022-07-23T05:30:21;24.10;36.90
64549;DHT22;49838;51.798;10.954;2022-07-23T05:32:48;24.20;36.90
64549;DHT22;49838;51.798;10.954;2022-07-23T05:35:16;24.20;36.90
64549;DHT22;49838;51.798;10.954;2022-07-23T05:37:43;24.20;37.10
64549;DHT22;49838;51.798;10.954;2022-07-23T05:40:12;24.20;36.80
64549;DHT22;49838;51.798;10.954;2022-07-23T05:42:40;24.20;37.10
64549;DHT22;49838;51.798;10.954;2022-07-23T05:45:08;24.20;37.30
64549;DHT22;49838;51.798;10.954;2022-07-23T05:47:39;24.20;37.30
64549;DHT22;49838;51.798;10.954;2022-07-23T05:50:08;24.20;37.10
64549;DHT22;49838;51.798;10.954;2022-07-23T05:52:35;24.30;37.10
64549;DHT22;49838;51.798;10.954;2022-07-23T05:55:03;24.40;37.00
64549;DHT22;49838;51.798;10.954;2022-07-23T05:57:32;24.60;37.10
64549;DHT22;49838;51.798;10.954;2022-07-23T05:59:59;24.80;37.00
64549;DHT22;49838;51.798;10.954;2022-07-23T06:02:26;24.90;37.00
64549;DHT22;49838;51.798;10.954;2022-07-23T06:04:53;25.20;37.00
64549;DHT22;49838;51.798;10.954;2022-07-23T06:07:21;25.70;36.90
64549;DHT22;49838;51.798;10.954;2022-07-23T06:09:48;25.90;36.80
64549;DHT22;49838;51.798;10.954;2022-07-23T06:12:15;25.90;36.90
64549;DHT22;49838;51.798;10.954;2022-07-23T06:14:44;25.90;37.00
64549;DHT22;49838;51.798;10.954;2022-07-23T06:17:14;25.90;37.00
64549;DHT22;49838;51.798;10.954;2022-07-23T06:19:41;26.10;37.10
64549;DHT22;49838;51.798;10.954;2022-07-23T06:22:08;26.20;37.10
64549;DHT22;49838;51.798;10.954;2022-07-23T06:24:36;26.30;37.00
64549;DHT22;49838;51.798;10.954;2022-07-23T06:27:03;26.60;37.10
64549;DHT22;49838;51.798;10.954;2022-07-23T06:29:30;26.90;37.00
64549;DHT22;49838;51.798;10.954;2022-07-23T06:31:59;27.40;36.90
64549;DHT22;49838;51.798;10.954;2022-07-23T06:34:26;27.80;37.00
64549;DHT22;49838;51.798;10.954;2022-07-23T06:36:53;28.00;36.90
64549;DHT22;49838;51.798;10.954;2022-07-23T06:39:21;28.60;36.90
64549;DHT22;49838;51.798;10.954;2022-07-23T06:41:48;29.40;36.70
64549;DHT22;49838;51.798;10.954;2022-07-23T06:44:15;29.90;36.70
64549;DHT22;49838;51.798;10.954;2022-07-23T06:46:42;30.40;36.70
64549;DHT22;49838;51.798;10.954;2022-07-23T06:49:11;31.20;36.80
64549;DHT22;49838;51.798;10.954;2022-07-23T06:51:38;31.50;36.70
64549;DHT22;49838;51.798;10.954;2022-07-23T06:54:05;31.60;36.60
64549;DHT22;49838;51.798;10.954;2022-07-23T06:56:33;31.70;36.70
64549;DHT22;49838;51.798;10.954;2022-07-23T06:59:00;31.50;36.60
64549;DHT22;49838;51.798;10.954;2022-07-23T07:01:27;31.30;36.70
64549;DHT22;49838;51.798;10.954;2022-07-23T07:03:54;31.20;36.60
64549;DHT22;49838;51.798;10.954;2022-07-23T07:06:23;31.10;36.60
64549;DHT22;49838;51.798;10.954;2022-07-23T07:08:50;30.90;36.70
64549;DHT22;49838;51.798;10.954;2022-07-23T07:11:18;30.60;36.80
64549;DHT22;49838;51.798;10.954;2022-07-23T07:13:45;30.60;37.00
64549;DHT22;49838;51.798;10.954;2022-07-23T07:16:12;30.70;36.90
64549;DHT22;49838;51.798;10.954;2022-07-23T07:18:39;30.60;36.80
64549;DHT22;49838;51.798;10.954;2022-07-23T07:21:07;30.80;36.80
64549;DHT22;49838;51.798;10.954;2022-07-23T07:23:35;31.00;36.70
64549;DHT22;49838;51.798;10.954;2022-07-23T07:26:02;31.10;36.50
64549;DHT22;49838;51.798;10.954;2022-07-23T07:28:30;31.10;36.30
64549;DHT22;49838;51.798;10.954;2022-07-23T07:30:57;31.30;36.60
64549;DHT22;49838;51.798;10.954;2022-07-23T07:33:24;31.60;36.50
64549;DHT22;49838;51.798;10.954;2022-07-23T07:35:51;32.20;36.40
64549;DHT22;49838;51.798;10.954;2022-07-23T07:38:19;32.70;36.40
64549;DHT22;49838;51.798;10.954;2022-07-23T07:40:47;33.00;36.10
64549;DHT22;49838;51.798;10.954;2022-07-23T07:43:15;32.90;35.90
64549;DHT22;49838;51.798;10.954;2022-07-23T07:45:42;32.40;35.60
64549;DHT22;49838;51.798;10.954;2022-07-23T07:48:09;31.90;35.80
64549;DHT22;49838;51.798;10.954;2022-07-23T07:50:37;31.70;36.10
64549;DHT22;49838;51.798;10.954;2022-07-23T07:53:04;31.70;36.20
64549;DHT22;49838;51.798;10.954;2022-07-23T07:55:31;32.20;36.00
64549;DHT22;49838;51.798;10.954;2022-07-23T07:58:00;32.60;36.20
64549;DHT22;49838;51.798;10.954;2022-07-23T08:00:27;32.80;36.20
64549;DHT22;49838;51.798;10.954;2022-07-23T08:02:55;32.80;35.90
64549;DHT22;49838;51.798;10.954;2022-07-23T08:05:22;32.80;35.60
64549;DHT22;49838;51.798;10.954;2022-07-23T08:07:51;32.70;35.50
64549;DHT22;49838;51.798;10.954;2022-07-23T08:10:19;32.50;35.50
64549;DHT22;49838;51.798;10.954;2022-07-23T08:12:47;32.20;35.20
64549;DHT22;49838;51.798;10.954;2022-07-23T08:15:18;31.90;35.30
64549;DHT22;49838;51.798;10.954;2022-07-23T08:17:46;31.90;35.30
64549;DHT22;49838;51.798;10.954;2022-07-23T08:20:16;31.90;35.30
64549;DHT22;49838;51.798;10.954;2022-07-23T08:22:45;31.90;35.30
64549;DHT22;49838;51.798;10.954;2022-07-23T08:25:14;31.70;35.20
64549;DHT22;49838;51.798;10.954;2022-07-23T08:27:42;31.90;35.30
64549;DHT22;49838;51.798;10.954;2022-07-23T08:30:10;32.50;35.70
64549;DHT22;49838;51.798;10.954;2022-07-23T08:32:54;33.00;35.30
64549;DHT22;49838;51.798;10.954;2022-07-23T08:35:27;33.10;35.30
64549;DHT22;49838;51.798;10.954;2022-07-23T08:37:56;33.10;34.60
64549;DHT22;49838;51.798;10.954;2022-07-23T08:40:26;32.90;34.70
64549;DHT22;49838;51.798;10.954;2022-07-23T08:42:54;32.80;34.60
64549;DHT22;49838;51.798;10.954;2022-07-23T08:45:22;32.60;34.50
64549;DHT22;49838;51.798;10.954;2022-07-23T08:47:50;32.40;34.40
64549;DHT22;49838;51.798;10.954;2022-07-23T08:50:21;32.70;34.60
64549;DHT22;49838;51.798;10.954;2022-07-23T08:52:49;33.00;34.80
64549;DHT22;49838;51.798;10.954;2022-07-23T08:55:18;33.30;35.10
64549;DHT22;49838;51.798;10.954;2022-07-23T08:57:47;33.60;34.60
64549;DHT22;49838;51.798;10.954;2022-07-23T09:00:16;33.80;34.70
64549;DHT22;49838;51.798;10.954;2022-07-23T09:02:44;34.30;35.20
64549;DHT22;49838;51.798;10.954;2022-07-23T09:05:13;34.40;34.30
64549;DHT22;49838;51.798;10.954;2022-07-23T09:10:45;34.40;32.00
64549;DHT22;49838;51.798;10.954;2022-07-23T09:13:24;34.10;32.90
64549;DHT22;49838;51.798;10.954;2022-07-23T09:15:54;34.10;33.10
64549;DHT22;49838;51.798;10.954;2022-07-23T09:18:29;34.30;33.10
64549;DHT22;49838;51.798;10.954;2022-07-23T09:21:07;34.30;32.50
64549;DHT22;49838;51.798;10.954;2022-07-23T09:23:38;34.20;32.60
64549;DHT22;49838;51.798;10.954;2022-07-23T09:26:20;34.10;32.60
64549;DHT22;49838;51.798;10.954;2022-07-23T09:28:56;34.10;32.50
64549;DHT22;49838;51.798;10.954;2022-07-23T09:31:25;34.10;32.20
64549;DHT22;49838;51.798;10.954;2022-07-23T09:34:06;34.10;31.90
64549;DHT22;49838;51.798;10.954;2022-07-23T09:36:45;34.10;32.20
64549;DHT22;49838;51.798;10.954;2022-07-23T09:39:15;34.00;32.10
64549;DHT22;49838;51.798;10.954;2022-07-23T09:41:48;33.90;32.10
64549;DHT22;49838;51.798;10.954;2022-07-23T09:44:16;33.80;32.10
64549;DHT22;49838;51.798;10.954;2022-07-23T09:46:47;33.70;32.00
64549;DHT22;49838;51.798;10.954;2022-07-23T09:49:16;33.80;31.90
64549;DHT22;49838;51.798;10.954;2022-07-23T09:51:47;34.00;32.10
64549;DHT22;49838;51.798;10.954;2022-07-23T09:54:25;34.50;32.30
64549;DHT22;49838;51.798;10.954;2022-07-23T09:56:58;34.90;32.60
64549;DHT22;49838;51.798;10.954;2022-07-23T09:59:27;35.30;32.70
64549;DHT22;49838;51.798;10.954;2022-07-23T10:01:58;35.60;32.60
64549;DHT22;49838;51.798;10.954;2022-07-23T10:04:26;35.80;32.30
64549;DHT22;49838;51.798;10.954;2022-07-23T10:06:56;36.00;31.10
64549;DHT22;49838;51.798;10.954;2022-07-23T10:09:28;35.90;31.60
64549;DHT22;49838;51.798;10.954;2022-07-23T10:11:57;35.90;31.60
64549;DHT22;49838;51.798;10.954;2022-07-23T10:14:40;35.90;31.50
64549;DHT22;49838;51.798;10.954;2022-07-23T10:17:08;36.00;31.30
64549;DHT22;49838;51.798;10.954;2022-07-23T10:19:36;36.30;31.80
64549;DHT22;49838;51.798;10.954;2022-07-23T10:22:04;36.60;32.00
64549;DHT22;49838;51.798;10.954;2022-07-23T10:24:38;37.00;32.40
64549;DHT22;49838;51.798;10.954;2022-07-23T10:27:30;37.40;32.30
64549;DHT22;49838;51.798;10.954;2022-07-23T10:30:11;37.70;32.10
64549;DHT22;49838;51.798;10.954;2022-07-23T10:32:44;38.00;31.70
64549;DHT22;49838;51.798;10.954;2022-07-23T10:35:18;38.00;30.80
64549;DHT22;49838;51.798;10.954;2022-07-23T10:37:54;37.70;30.10
64549;DHT22;49838;51.798;10.954;2022-07-23T10:40:30;37.50;30.30
64549;DHT22;49838;51.798;10.954;2022-07-23T10:42:58;37.40;30.00
64549;DHT22;49838;51.798;10.954;2022-07-23T10:45:28;37.40;30.50
64549;DHT22;49838;51.798;10.954;2022-07-23T10:48:11;37.40;30.70
64549;DHT22;49838;51.798;10.954;2022-07-23T10:50:41;37.50;30.80
64549;DHT22;49838;51.798;10.954;2022-07-23T10:53:11;37.90;30.30
64549;DHT22;49838;51.798;10.954;2022-07-23T10:55:44;37.90;30.00
64549;DHT22;49838;51.798;10.954;2022-07-23T10:58:17;38.00;30.20
64549;DHT22;49838;51.798;10.954;2022-07-23T11:00:46;38.10;29.90
64549;DHT22;49838;51.798;10.954;2022-07-23T11:03:27;38.10;30.00
64549;DHT22;49838;51.798;10.954;2022-07-23T11:05:57;38.20;30.30
64549;DHT22;49838;51.798;10.954;2022-07-23T11:08:25;38.20;30.00
64549;DHT22;49838;51.798;10.954;2022-07-23T11:10:54;38.30;30.00
64549;DHT22;49838;51.798;10.954;2022-07-23T11:13:46;38.10;29.70
64549;DHT22;49838;51.798;10.954;2022-07-23T11:16:16;37.90;29.50
64549;DHT22;49838;51.798;10.954;2022-07-23T11:19:04;37.70;29.40
64549;DHT22;49838;51.798;10.954;2022-07-23T11:21:46;37.40;28.50
64549;DHT22;49838;51.798;10.954;2022-07-23T11:24:21;36.90;28.50
64549;DHT22;49838;51.798;10.954;2022-07-23T11:26:58;36.60;28.70
64549;DHT22;49838;51.798;10.954;2022-07-23T11:29:42;36.30;28.90
64549;DHT22;49838;51.798;10.954;2022-07-23T11:32:32;36.00;28.80
64549;DHT22;49838;51.798;10.954;2022-07-23T11:35:27;35.80;28.90
64549;DHT22;49838;51.798;10.954;2022-07-23T11:38:03;35.50;29.10
64549;DHT22;49838;51.798;10.954;2022-07-23T11:40:32;35.10;29.10
64549;DHT22;49838;51.798;10.954;2022-07-23T11:43:02;34.80;28.50
64549;DHT22;49838;51.798;10.954;2022-07-23T11:45:32;34.60;28.80
64549;DHT22;49838;51.798;10.954;2022-07-23T11:48:01;34.50;28.90
64549;DHT22;49838;51.798;10.954;2022-07-23T11:50:29;34.30;28.50
64549;DHT22;49838;51.798;10.954;2022-07-23T11:52:56;34.10;28.40
64549;DHT22;49838;51.798;10.954;2022-07-23T11:55:24;33.90;28.90
64549;DHT22;49838;51.798;10.954;2022-07-23T11:57:52;33.90;28.70
64549;DHT22;49838;51.798;10.954;2022-07-23T12:00:21;33.80;28.80
64549;DHT22;49838;51.798;10.954;2022-07-23T12:02:51;33.80;29.00
64549;DHT22;49838;51.798;10.954;2022-07-23T12:05:20;33.90;29.10
64549;DHT22;49838;51.798;10.954;2022-07-23T12:07:49;34.10;29.00
64549;DHT22;49838;51.798;10.954;2022-07-23T12:10:18;34.30;29.00
64549;DHT22;49838;51.798;10.954;2022-07-23T12:12:47;34.20;28.90
64549;DHT22;49838;51.798;10.954;2022-07-23T12:15:16;34.10;28.90
64549;DHT22;49838;51.798;10.954;2022-07-23T12:17:46;34.10;28.90
64549;DHT22;49838;51.798;10.954;2022-07-23T12:20:15;34.20;28.70
64549;DHT22;49838;51.798;10.954;2022-07-23T12:22:44;34.10;28.80
64549;DHT22;49838;51.798;10.954;2022-07-23T12:25:13;34.00;29.00
64549;DHT22;49838;51.798;10.954;2022-07-23T12:27:42;34.10;28.80
64549;DHT22;49838;51.798;10.954;2022-07-23T12:30:17;34.00;28.60
64549;DHT22;49838;51.798;10.954;2022-07-23T12:32:47;34.00;28.70
64549;DHT22;49838;51.798;10.954;2022-07-23T12:35:16;33.90;28.90
64549;DHT22;49838;51.798;10.954;2022-07-23T12:37:44;33.90;28.90
64549;DHT22;49838;51.798;10.954;2022-07-23T12:40:20;33.90;28.80
64549;DHT22;49838;51.798;10.954;2022-07-23T12:42:50;33.90;28.50
64549;DHT22;49838;51.798;10.954;2022-07-23T12:45:19;33.80;28.50
64549;DHT22;49838;51.798;10.954;2022-07-23T12:48:01;33.70;28.40
64549;DHT22;49838;51.798;10.954;2022-07-23T12:50:35;33.60;28.30
64549;DHT22;49838;51.798;10.954;2022-07-23T12:53:09;33.60;28.70
64549;DHT22;49838;51.798;10.954;2022-07-23T12:55:39;33.70;28.50
64549;DHT22;49838;51.798;10.954;2022-07-23T12:58:11;33.80;28.70
64549;DHT22;49838;51.798;10.954;2022-07-23T13:00:58;33.90;28.70
64549;DHT22;49838;51.798;10.954;2022-07-23T13:03:30;33.80;28.60
64549;DHT22;49838;51.798;10.954;2022-07-23T13:06:00;33.80;28.40
64549;DHT22;49838;51.798;10.954;2022-07-23T13:08:29;33.60;28.10
64549;DHT22;49838;51.798;10.954;2022-07-23T13:10:58;33.50;28.20
64549;DHT22;49838;51.798;10.954;2022-07-23T13:13:29;33.50;28.40
64549;DHT22;49838;51.798;10.954;2022-07-23T13:15:58;33.50;28.20
64549;DHT22;49838;51.798;10.954;2022-07-23T13:18:26;33.40;28.20
64549;DHT22;49838;51.798;10.954;2022-07-23T13:20:55;33.30;27.90
64549;DHT22;49838;51.798;10.954;2022-07-23T13:23:23;33.20;28.20
64549;DHT22;49838;51.798;10.954;2022-07-23T13:25:51;33.20;28.10
64549;DHT22;49838;51.798;10.954;2022-07-23T13:28:19;33.30;28.20
64549;DHT22;49838;51.798;10.954;2022-07-23T13:30:48;33.30;28.10
64549;DHT22;49838;51.798;10.954;2022-07-23T13:33:17;33.20;28.20
64549;DHT22;49838;51.798;10.954;2022-07-23T13:35:46;33.30;28.30
64549;DHT22;49838;51.798;10.954;2022-07-23T13:38:17;33.20;28.10
64549;DHT22;49838;51.798;10.954;2022-07-23T13:40:46;33.20;28.10
64549;DHT22;49838;51.798;10.954;2022-07-23T13:43:15;33.20;28.20
64549;DHT22;49838;51.798;10.954;2022-07-23T13:45:44;33.20;28.20
64549;DHT22;49838;51.798;10.954;2022-07-23T13:48:12;33.10;28.00
64549;DHT22;49838;51.798;10.954;2022-07-23T13:50:41;33.00;27.80
64549;DHT22;49838;51.798;10.954;2022-07-23T13:53:10;32.90;27.80
64549;DHT22;49838;51.798;10.954;2022-07-23T13:55:39;32.80;27.90
64549;DHT22;49838;51.798;10.954;2022-07-23T13:58:08;32.80;27.90
64549;DHT22;49838;51.798;10.954;2022-07-23T14:00:37;32.80;28.10
64549;DHT22;49838;51.798;10.954;2022-07-23T14:03:06;32.80;28.10
64549;DHT22;49838;51.798;10.954;2022-07-23T14:05:34;32.90;28.10
64549;DHT22;49838;51.798;10.954;2022-07-23T14:08:01;32.90;28.00
64549;DHT22;49838;51.798;10.954;2022-07-23T14:10:29;32.80;27.90
64549;DHT22;49838;51.798;10.954;2022-07-23T14:13:00;32.80;28.10
64549;DHT22;49838;51.798;10.954;2022-07-23T14:15:28;32.80;28.20
64549;DHT22;49838;51.798;10.954;2022-07-23T14:17:57;32.90;28.20
64549;DHT22;49838;51.798;10.954;2022-07-23T14:20:24;32.90;28.20
64549;DHT22;49838;51.798;10.954;2022-07-23T14:22:52;33.00;28.20
64549;DHT22;49838;51.798;10.954;2022-07-23T14:25:21;33.00;28.10
64549;DHT22;49838;51.798;10.954;2022-07-23T14:27:49;33.00;28.00
64549;DHT22;49838;51.798;10.954;2022-07-23T14:30:17;33.00;28.00
64549;DHT22;49838;51.798;10.954;2022-07-23T14:32:44;33.00;28.00
64549;DHT22;49838;51.798;10.954;2022-07-23T14:35:12;33.10;28.00
64549;DHT22;49838;51.798;10.954;2022-07-23T14:37:39;33.10;28.00
64549;DHT22;49838;51.798;10.954;2022-07-23T14:40:07;33.10;28.00
64549;DHT22;49838;51.798;10.954;2022-07-23T14:42:34;33.10;27.90
64549;DHT22;49838;51.798;10.954;2022-07-23T14:45:02;33.10;27.90
64549;DHT22;49838;51.798;10.954;2022-07-23T14:47:32;33.00;27.80
64549;DHT22;49838;51.798;10.954;2022-07-23T14:49:59;33.00;27.80
64549;DHT22;49838;51.798;10.954;2022-07-23T14:52:26;33.00;27.90
64549;DHT22;49838;51.798;10.954;2022-07-23T14:54:53;32.90;27.70
64549;DHT22;49838;51.798;10.954;2022-07-23T14:57:21;32.90;27.70
64549;DHT22;49838;51.798;10.954;2022-07-23T14:59:48;32.90;27.90
64549;DHT22;49838;51.798;10.954;2022-07-23T15:02:15;33.00;27.90
64549;DHT22;49838;51.798;10.954;2022-07-23T15:04:44;32.90;27.90
64549;DHT22;49838;51.798;10.954;2022-07-23T15:07:11;32.90;27.90
64549;DHT22;49838;51.798;10.954;2022-07-23T15:09:38;32.90;27.90
64549;DHT22;49838;51.798;10.954;2022-07-23T15:12:05;32.70;27.70
64549;DHT22;49838;51.798;10.954;2022-07-23T15:14:33;32.70;27.70
64549;DHT22;49838;51.798;10.954;2022-07-23T15:17:00;32.60;27.70
64549;DHT22;49838;51.798;10.954;2022-07-23T15:19:27;32.50;27.60
64549;DHT22;49838;51.798;10.954;2022-07-23T15:21:56;32.40;27.50
64549;DHT22;49838;51.798;10.954;2022-07-23T15:24:25;32.30;27.70
64549;DHT22;49838;51.798;10.954;2022-07-23T15:26:52;32.20;27.50
64549;DHT22;49838;51.798;10.954;2022-07-23T15:29:19;32.20;27.80